createdAt,value
2017-05-12T00:00:13.749Z,0
2017-05-12T00:01:14.097Z,0
2017-05-12T00:02:13.828Z,0
2017-05-12T00:03:13.861Z,0
2017-05-12T00:04:14.815Z,0
2017-05-12T00:05:14.241Z,0
2017-05-12T00:06:14.277Z,0
2017-05-12T00:07:14.616Z,0
2017-05-12T00:08:14.054Z,0
2017-05-12T00:09:14.091Z,0
2017-05-12T00:10:14.117Z,0
2017-05-12T00:11:14.163Z,0
2017-05-12T00:12:14.189Z,0
2017-05-12T00:13:14.551Z,0
2017-05-12T00:14:14.577Z,0
2017-05-12T00:15:14.939Z,0
2017-05-12T00:16:14.345Z,0
2017-05-12T00:17:14.704Z,0
2017-05-12T00:18:14.728Z,0
2017-05-12T00:19:14.476Z,0
2017-05-12T00:20:14.818Z,0
2017-05-12T00:21:14.547Z,0
2017-05-12T00:22:15.208Z,0
2017-05-12T00:23:14.613Z,0
2017-05-12T00:24:14.667Z,0
2017-05-12T00:25:15.017Z,0
2017-05-12T00:26:14.731Z,0
2017-05-12T00:27:15.398Z,0
2017-05-12T00:28:14.806Z,0
2017-05-12T00:29:15.154Z,0
2017-05-12T00:30:14.883Z,0
2017-05-12T00:31:15.237Z,0
2017-05-12T00:32:15.271Z,0
2017-05-12T00:33:15.632Z,0
2017-05-12T00:34:15.035Z,0
2017-05-12T00:35:15.159Z,0
2017-05-12T00:36:15.421Z,0
2017-05-12T00:37:15.456Z,0
2017-05-12T00:38:15.502Z,0
2017-05-12T00:39:15.227Z,0
2017-05-12T00:40:16.202Z,0
2017-05-12T00:41:15.316Z,0
2017-05-12T00:42:15.345Z,0
2017-05-12T00:43:16.009Z,0
2017-05-12T00:44:15.733Z,0
2017-05-12T00:45:15.773Z,0
2017-05-12T00:46:15.495Z,0
2017-05-12T00:47:15.844Z,0
2017-05-12T00:48:16.202Z,0
2017-05-12T00:49:15.919Z,0
2017-05-12T00:50:15.954Z,0
2017-05-12T00:51:16.304Z,0
2017-05-12T00:52:16.044Z,0
2017-05-12T00:53:16.075Z,0
2017-05-12T00:54:16.426Z,0
2017-05-12T00:55:16.157Z,0
2017-05-12T00:56:16.190Z,0
2017-05-12T00:57:16.224Z,0
2017-05-12T00:58:15.957Z,0
2017-05-12T00:59:16.055Z,0
2017-05-12T01:00:16.658Z,0
2017-05-12T01:01:16.375Z,0
2017-05-12T01:02:16.126Z,0
2017-05-12T01:03:17.375Z,0
2017-05-12T01:04:16.492Z,0
2017-05-12T01:05:16.234Z,0
2017-05-12T01:06:16.257Z,0
2017-05-12T01:07:16.620Z,0
2017-05-12T01:08:16.646Z,0
2017-05-12T01:09:16.379Z,0
2017-05-12T01:10:16.408Z,0
2017-05-12T01:11:16.449Z,0
2017-05-12T01:12:16.799Z,0
2017-05-12T01:13:16.851Z,0
2017-05-12T01:14:16.868Z,0
2017-05-12T01:15:16.616Z,0
2017-05-12T01:16:16.641Z,0
2017-05-12T01:17:16.688Z,0
2017-05-12T01:18:17.037Z,0
2017-05-12T01:19:17.065Z,0
2017-05-12T01:20:17.094Z,0
2017-05-12T01:21:17.153Z,0
2017-05-12T01:22:17.200Z,0
2017-05-12T01:23:17.522Z,0
2017-05-12T01:24:17.562Z,0
2017-05-12T01:25:17.652Z,0
2017-05-12T01:26:17.048Z,0
2017-05-12T01:27:17.054Z,0
2017-05-12T01:28:17.723Z,0
2017-05-12T01:29:17.438Z,0
2017-05-12T01:30:17.786Z,0
2017-05-12T01:31:17.520Z,0
2017-05-12T01:32:17.554Z,0
2017-05-12T01:33:17.593Z,0
2017-05-12T01:34:17.944Z,0
2017-05-12T01:35:17.680Z,0
2017-05-12T01:36:17.713Z,0
2017-05-12T01:37:18.061Z,0
2017-05-12T01:38:18.116Z,0
2017-05-12T01:39:17.517Z,0
2017-05-12T01:40:17.551Z,0
2017-05-12T01:41:17.588Z,0
2017-05-12T01:42:17.946Z,0
2017-05-12T01:43:17.972Z,0
2017-05-12T01:44:18.007Z,0
2017-05-12T01:45:17.747Z,0
2017-05-12T01:46:17.776Z,0
2017-05-12T01:47:18.115Z,0
2017-05-12T01:48:17.853Z,0
2017-05-12T01:49:17.889Z,0
2017-05-12T01:50:17.922Z,0
2017-05-12T01:51:17.986Z,0
2017-05-12T01:52:18.615Z,0
2017-05-12T01:53:18.651Z,0
2017-05-12T01:54:18.085Z,0
2017-05-12T01:55:18.122Z,0
2017-05-12T01:56:18.779Z,0
2017-05-12T01:57:18.812Z,0
2017-05-12T01:58:18.539Z,0
2017-05-12T01:59:19.510Z,0
2017-05-12T02:00:18.607Z,0
2017-05-12T02:01:18.655Z,0
2017-05-12T02:02:18.688Z,0
2017-05-12T02:03:18.427Z,0
2017-05-12T02:04:19.383Z,0
2017-05-12T02:05:18.503Z,0
2017-05-12T02:06:19.766Z,0
2017-05-12T02:07:18.900Z,0
2017-05-12T02:08:18.963Z,0
2017-05-12T02:09:18.954Z,0
2017-05-12T02:10:18.679Z,0
2017-05-12T02:11:18.716Z,0
2017-05-12T02:12:18.756Z,0
2017-05-12T02:13:19.407Z,0
2017-05-12T02:14:18.834Z,0
2017-05-12T02:15:18.880Z,0
2017-05-12T02:16:19.529Z,0
2017-05-12T02:17:18.947Z,0
2017-05-12T02:18:19.590Z,0
2017-05-12T02:19:19.335Z,0
2017-05-12T02:20:19.055Z,0
2017-05-12T02:21:19.411Z,0
2017-05-12T02:22:19.745Z,0
2017-05-12T02:23:19.174Z,0
2017-05-12T02:24:19.834Z,0
2017-05-12T02:25:19.240Z,0
2017-05-12T02:26:19.289Z,0
2017-05-12T02:27:19.633Z,0
2017-05-12T02:28:20.275Z,0
2017-05-12T02:29:20.321Z,0
2017-05-12T02:30:19.425Z,0
2017-05-12T02:31:19.776Z,0
2017-05-12T02:32:19.809Z,0
2017-05-12T02:33:19.854Z,0
2017-05-12T02:34:19.891Z,0
2017-05-12T02:35:19.624Z,0
2017-05-12T02:36:20.311Z,0
2017-05-12T02:37:19.689Z,0
2017-05-12T02:38:19.726Z,0
2017-05-12T02:39:20.391Z,0
2017-05-12T02:40:20.117Z,0
2017-05-12T02:41:19.844Z,0
2017-05-12T02:42:19.880Z,0
2017-05-12T02:43:20.845Z,0
2017-05-12T02:44:19.953Z,0
2017-05-12T02:45:20.605Z,0
2017-05-12T02:46:20.648Z,0
2017-05-12T02:47:20.066Z,0
2017-05-12T02:48:20.719Z,0
2017-05-12T02:49:20.453Z,0
2017-05-12T02:50:20.169Z,0
2017-05-12T02:51:20.836Z,0
2017-05-12T02:52:20.565Z,0
2017-05-12T02:53:20.903Z,0
2017-05-12T02:54:21.255Z,0
2017-05-12T02:55:20.984Z,0
2017-05-12T02:56:20.708Z,0
2017-05-12T02:57:21.045Z,0
2017-05-12T02:58:21.401Z,0
2017-05-12T02:59:21.134Z,0
2017-05-12T03:00:20.551Z,0
2017-05-12T03:01:20.898Z,0
2017-05-12T03:02:20.940Z,0
2017-05-12T03:03:21.278Z,0
2017-05-12T03:04:21.320Z,0
2017-05-12T03:05:21.358Z,0
2017-05-12T03:06:21.110Z,0
2017-05-12T03:07:21.115Z,0
2017-05-12T03:08:21.476Z,5
2017-05-12T03:09:21.808Z,5
2017-05-12T03:10:20.925Z,5
2017-05-12T03:11:20.967Z,5
2017-05-12T03:12:20.996Z,5
2017-05-12T03:13:21.348Z,5
2017-05-12T03:14:21.383Z,5
2017-05-12T03:15:21.106Z,5
2017-05-12T03:16:21.151Z,5
2017-05-12T03:17:21.498Z,10
2017-05-12T03:18:21.834Z,10
2017-05-12T03:19:22.190Z,10
2017-05-12T03:20:21.300Z,10
2017-05-12T03:21:21.343Z,10
2017-05-12T03:22:21.984Z,10
2017-05-12T03:23:21.722Z,10
2017-05-12T03:24:21.445Z,10
2017-05-12T03:25:21.484Z,10
2017-05-12T03:26:21.824Z,10
2017-05-12T03:27:21.871Z,10
2017-05-12T03:28:21.906Z,10
2017-05-12T03:29:21.948Z,10
2017-05-12T03:30:21.671Z,10
2017-05-12T03:31:21.709Z,10
2017-05-12T03:32:22.050Z,15
2017-05-12T03:33:22.090Z,15
2017-05-12T03:34:23.055Z,15
2017-05-12T03:35:22.165Z,20
2017-05-12T03:36:22.222Z,20
2017-05-12T03:37:22.553Z,30
2017-05-12T03:38:22.314Z,40
2017-05-12T03:39:22.457Z,40
2017-05-12T03:40:22.349Z,45
2017-05-12T03:41:22.081Z,45
2017-05-12T03:42:22.114Z,55
2017-05-12T03:43:22.468Z,45
2017-05-12T03:44:22.814Z,35
2017-05-12T03:45:22.558Z,35
2017-05-12T03:46:23.189Z,45
2017-05-12T03:47:22.619Z,50
2017-05-12T03:48:22.363Z,45
2017-05-12T03:49:23.312Z,45
2017-05-12T03:50:23.050Z,40
2017-05-12T03:51:23.084Z,40
2017-05-12T03:52:22.810Z,50
2017-05-12T03:53:22.851Z,55
2017-05-12T03:54:22.569Z,65
2017-05-12T03:55:22.614Z,60
2017-05-12T03:56:23.010Z,50
2017-05-12T03:57:22.993Z,40
2017-05-12T03:58:22.737Z,35
2017-05-12T03:59:23.694Z,35
2017-05-12T04:00:22.805Z,40
2017-05-12T04:01:23.461Z,40
2017-05-12T04:02:23.495Z,40
2017-05-12T04:03:23.231Z,40
2017-05-12T04:04:23.264Z,45
2017-05-12T04:05:23.627Z,45
2017-05-12T04:06:23.649Z,45
2017-05-12T04:07:23.383Z,45
2017-05-12T04:08:23.416Z,45
2017-05-12T04:09:23.461Z,50
2017-05-12T04:10:23.184Z,50
2017-05-12T04:11:23.563Z,50
2017-05-12T04:12:23.261Z,50
2017-05-12T04:13:23.617Z,50
2017-05-12T04:14:24.270Z,50
2017-05-12T04:15:23.681Z,55
2017-05-12T04:16:23.767Z,55
2017-05-12T04:17:23.465Z,55
2017-05-12T04:18:23.803Z,60
2017-05-12T04:19:23.838Z,60
2017-05-12T04:20:23.869Z,60
2017-05-12T04:21:24.522Z,65
2017-05-12T04:22:24.560Z,65
2017-05-12T04:23:23.685Z,65
2017-05-12T04:24:23.721Z,70
2017-05-12T04:25:24.365Z,70
2017-05-12T04:26:24.127Z,70
2017-05-12T04:27:24.448Z,75
2017-05-12T04:28:24.174Z,75
2017-05-12T04:29:24.528Z,80
2017-05-12T04:30:23.937Z,80
2017-05-12T04:31:24.291Z,85
2017-05-12T04:32:24.012Z,90
2017-05-12T04:33:24.407Z,90
2017-05-12T04:34:24.716Z,95
2017-05-12T04:35:24.137Z,95
2017-05-12T04:36:24.475Z,100
2017-05-12T04:37:24.210Z,105
2017-05-12T04:38:24.551Z,110
2017-05-12T04:39:24.590Z,115
2017-05-12T04:40:25.243Z,125
2017-05-12T04:41:25.287Z,130
2017-05-12T04:42:24.700Z,135
2017-05-12T04:43:24.749Z,140
2017-05-12T04:44:25.093Z,145
2017-05-12T04:45:24.517Z,150
2017-05-12T04:46:25.189Z,155
2017-05-12T04:47:24.897Z,165
2017-05-12T04:48:24.682Z,170
2017-05-12T04:49:25.580Z,175
2017-05-12T04:50:25.009Z,185
2017-05-12T04:51:25.075Z,185
2017-05-12T04:52:24.811Z,185
2017-05-12T04:53:24.809Z,185
2017-05-12T04:54:26.088Z,185
2017-05-12T04:55:25.510Z,190
2017-05-12T04:56:25.545Z,200
2017-05-12T04:57:25.012Z,200
2017-05-12T04:58:25.313Z,195
2017-05-12T04:59:25.049Z,200
2017-05-12T05:00:25.082Z,200
2017-05-12T05:01:25.441Z,200
2017-05-12T05:02:25.158Z,205
2017-05-12T05:03:25.521Z,215
2017-05-12T05:04:25.655Z,220
2017-05-12T05:05:25.279Z,225
2017-05-12T05:06:25.322Z,230
2017-05-12T05:07:25.662Z,235
2017-05-12T05:08:25.706Z,240
2017-05-12T05:09:25.750Z,245
2017-05-12T05:10:25.495Z,255
2017-05-12T05:11:25.824Z,255
2017-05-12T05:12:25.860Z,265
2017-05-12T05:13:26.209Z,285
2017-05-12T05:14:26.247Z,325
2017-05-12T05:15:25.681Z,400
2017-05-12T05:16:25.749Z,415
2017-05-12T05:17:26.055Z,360
2017-05-12T05:18:26.402Z,295
2017-05-12T05:19:25.831Z,265
2017-05-12T05:20:26.180Z,260
2017-05-12T05:21:26.638Z,265
2017-05-12T05:22:26.874Z,265
2017-05-12T05:23:26.354Z,265
2017-05-12T05:24:26.709Z,270
2017-05-12T05:25:26.066Z,275
2017-05-12T05:26:26.113Z,275
2017-05-12T05:27:26.196Z,275
2017-05-12T05:28:26.620Z,280
2017-05-12T05:29:27.160Z,285
2017-05-12T05:30:26.276Z,300
2017-05-12T05:31:26.344Z,335
2017-05-12T05:32:26.349Z,305
2017-05-12T05:33:27.006Z,315
2017-05-12T05:34:26.740Z,380
2017-05-12T05:35:26.471Z,445
2017-05-12T05:36:26.525Z,380
2017-05-12T05:37:26.551Z,415
2017-05-12T05:38:27.444Z,390
2017-05-12T05:39:26.631Z,380
2017-05-12T05:40:27.294Z,470
2017-05-12T05:41:27.028Z,455
2017-05-12T05:42:27.063Z,365
2017-05-12T05:43:27.219Z,405
2017-05-12T05:44:26.848Z,340
2017-05-12T05:45:26.879Z,335
2017-05-12T05:46:26.921Z,345
2017-05-12T05:47:27.273Z,350
2017-05-12T05:48:27.361Z,350
2017-05-12T05:49:27.351Z,390
2017-05-12T05:50:27.401Z,400
2017-05-12T05:51:27.131Z,545
2017-05-12T05:52:27.855Z,830
2017-05-12T05:53:27.519Z,710
2017-05-12T05:54:27.254Z,540
2017-05-12T05:55:27.599Z,550
2017-05-12T05:56:27.341Z,960
2017-05-12T05:57:27.999Z,880
2017-05-12T05:58:27.770Z,680
2017-05-12T05:59:27.470Z,535
2017-05-12T06:00:27.496Z,730
2017-05-12T06:01:28.486Z,685
2017-05-12T06:02:27.912Z,905
2017-05-12T06:03:27.940Z,915
2017-05-12T06:04:27.996Z,1040
2017-05-12T06:05:27.722Z,1075
2017-05-12T06:06:27.764Z,1090
2017-05-12T06:07:28.127Z,1075
2017-05-12T06:08:28.167Z,940
2017-05-12T06:09:28.825Z,1145
2017-05-12T06:10:27.949Z,1220
2017-05-12T06:11:28.933Z,1185
2017-05-12T06:12:29.115Z,1170
2017-05-12T06:13:29.062Z,1155
2017-05-12T06:14:28.133Z,1135
2017-05-12T06:15:28.506Z,1175
2017-05-12T06:16:28.542Z,1205
2017-05-12T06:17:28.609Z,1230
2017-05-12T06:18:28.946Z,1235
2017-05-12T06:19:28.690Z,1170
2017-05-12T06:20:28.725Z,1190
2017-05-12T06:21:28.770Z,1245
2017-05-12T06:22:28.829Z,1290
2017-05-12T06:23:28.880Z,1350
2017-05-12T06:24:28.940Z,1345
2017-05-12T06:25:28.670Z,1355
2017-05-12T06:26:29.026Z,1390
2017-05-12T06:27:29.077Z,1415
2017-05-12T06:28:28.820Z,1425
2017-05-12T06:29:29.169Z,1425
2017-05-12T06:30:28.966Z,1400
2017-05-12T06:31:29.291Z,1405
2017-05-12T06:32:29.331Z,1410
2017-05-12T06:33:29.692Z,1430
2017-05-12T06:34:29.440Z,1415
2017-05-12T06:35:29.486Z,1440
2017-05-12T06:36:29.536Z,1330
2017-05-12T06:37:29.278Z,1290
2017-05-12T06:38:29.640Z,905
2017-05-12T06:39:29.697Z,1020
2017-05-12T06:40:29.429Z,1160
2017-05-12T06:41:29.798Z,1460
2017-05-12T06:42:29.538Z,1440
2017-05-12T06:43:29.900Z,1290
2017-05-12T06:44:29.956Z,1250
2017-05-12T06:45:29.692Z,1325
2017-05-12T06:46:30.045Z,1180
2017-05-12T06:47:30.111Z,1345
2017-05-12T06:48:29.883Z,1405
2017-05-12T06:49:30.837Z,1360
2017-05-12T06:50:30.262Z,1205
2017-05-12T06:51:30.018Z,1185
2017-05-12T06:52:30.373Z,1135
2017-05-12T06:53:30.112Z,935
2017-05-12T06:54:31.091Z,990
2017-05-12T06:55:30.827Z,1025
2017-05-12T06:56:30.261Z,1075
2017-05-12T06:57:30.318Z,1090
2017-05-12T06:58:30.675Z,1145
2017-05-12T06:59:30.733Z,1190
2017-05-12T07:00:30.785Z,965
2017-05-12T07:01:30.824Z,1125
2017-05-12T07:02:31.181Z,1370
2017-05-12T07:03:30.929Z,1420
2017-05-12T07:04:30.984Z,1635
2017-05-12T07:05:31.039Z,1800
2017-05-12T07:06:31.090Z,1665
2017-05-12T07:07:30.833Z,1755
2017-05-12T07:08:31.187Z,1710
2017-05-12T07:09:31.245Z,1475
2017-05-12T07:10:31.908Z,1530
2017-05-12T07:11:31.047Z,1510
2017-05-12T07:12:31.404Z,1335
2017-05-12T07:13:31.259Z,1475
2017-05-12T07:14:31.512Z,1420
2017-05-12T07:15:31.256Z,1175
2017-05-12T07:16:31.310Z,1180
2017-05-12T07:17:31.566Z,1140
2017-05-12T07:18:32.021Z,1190
2017-05-12T07:19:31.979Z,1175
2017-05-12T07:20:31.521Z,1305
2017-05-12T07:21:31.884Z,1240
2017-05-12T07:22:31.934Z,1605
2017-05-12T07:23:32.372Z,1445
2017-05-12T07:24:32.969Z,1510
2017-05-12T07:25:31.791Z,1615
2017-05-12T07:26:31.843Z,1445
2017-05-12T07:27:31.894Z,1395
2017-05-12T07:28:32.873Z,1680
2017-05-12T07:29:31.995Z,1600
2017-05-12T07:30:32.052Z,1620
2017-05-12T07:31:32.130Z,1635
2017-05-12T07:32:32.781Z,1595
2017-05-12T07:33:32.520Z,1540
2017-05-12T07:34:32.573Z,1520
2017-05-12T07:35:32.634Z,1490
2017-05-12T07:36:33.062Z,1515
2017-05-12T07:37:33.351Z,1585
2017-05-12T07:38:33.104Z,1600
2017-05-12T07:39:32.851Z,1685
2017-05-12T07:40:32.903Z,1705
2017-05-12T07:41:32.645Z,1755
2017-05-12T07:42:33.023Z,1810
2017-05-12T07:43:33.111Z,1820
2017-05-12T07:44:33.123Z,1915
2017-05-12T07:45:32.877Z,1950
2017-05-12T07:46:32.924Z,1920
2017-05-12T07:47:32.978Z,1905
2017-05-12T07:48:33.357Z,1890
2017-05-12T07:49:33.710Z,1880
2017-05-12T07:50:33.456Z,1870
2017-05-12T07:51:33.820Z,1865
2017-05-12T07:52:33.573Z,1870
2017-05-12T07:53:33.320Z,1900
2017-05-12T07:54:33.682Z,1900
2017-05-12T07:55:33.439Z,1925
2017-05-12T07:56:33.497Z,1970
2017-05-12T07:57:34.164Z,2030
2017-05-12T07:58:33.925Z,2055
2017-05-12T07:59:33.968Z,2075
2017-05-12T08:00:34.959Z,2090
2017-05-12T08:01:34.093Z,2080
2017-05-12T08:02:33.851Z,2135
2017-05-12T08:03:34.515Z,2130
2017-05-12T08:04:34.575Z,2100
2017-05-12T08:05:34.643Z,2110
2017-05-12T08:06:34.374Z,2130
2017-05-12T08:07:34.130Z,2160
2017-05-12T08:08:34.485Z,2155
2017-05-12T08:09:35.173Z,2165
2017-05-12T08:10:34.916Z,2170
2017-05-12T08:11:34.506Z,2220
2017-05-12T08:12:35.757Z,2235
2017-05-12T08:13:34.783Z,2275
2017-05-12T08:14:34.845Z,2310
2017-05-12T08:15:34.895Z,2315
2017-05-12T08:16:34.665Z,2380
2017-05-12T08:17:35.057Z,2405
2017-05-12T08:18:35.499Z,2445
2017-05-12T08:19:35.453Z,2405
2017-05-12T08:20:35.430Z,2380
2017-05-12T08:21:35.037Z,2380
2017-05-12T08:22:35.002Z,2350
2017-05-12T08:23:35.063Z,2320
2017-05-12T08:24:35.120Z,2335
2017-05-12T08:25:35.179Z,2355
2017-05-12T08:26:35.546Z,2350
2017-05-12T08:27:35.292Z,2345
2017-05-12T08:28:35.962Z,2350
2017-05-12T08:29:36.845Z,2375
2017-05-12T08:30:35.474Z,2415
2017-05-12T08:31:36.143Z,2445
2017-05-12T08:32:35.891Z,2405
2017-05-12T08:33:35.674Z,2405
2017-05-12T08:34:36.432Z,2380
2017-05-12T08:35:36.082Z,2415
2017-05-12T08:36:36.009Z,2425
2017-05-12T08:37:36.197Z,2420
2017-05-12T08:38:36.869Z,2375
2017-05-12T08:39:36.308Z,2325
2017-05-12T08:40:36.373Z,2250
2017-05-12T08:41:36.426Z,2175
2017-05-12T08:42:36.492Z,2130
2017-05-12T08:43:36.236Z,2065
2017-05-12T08:44:36.815Z,2045
2017-05-12T08:45:36.366Z,2040
2017-05-12T08:46:36.720Z,2065
2017-05-12T08:47:36.579Z,2125
2017-05-12T08:48:36.610Z,2220
2017-05-12T08:49:36.899Z,2260
2017-05-12T08:50:36.657Z,2340
2017-05-12T08:51:36.716Z,2335
2017-05-12T08:52:37.085Z,2350
2017-05-12T08:53:37.450Z,2345
2017-05-12T08:54:37.198Z,2310
2017-05-12T08:55:37.035Z,2300
2017-05-12T08:56:37.092Z,2295
2017-05-12T08:57:37.380Z,2380
2017-05-12T08:58:37.766Z,2425
2017-05-12T08:59:38.112Z,2525
2017-05-12T09:00:37.311Z,2590
2017-05-12T09:01:37.457Z,2630
2017-05-12T09:02:37.809Z,2650
2017-05-12T09:03:37.781Z,2685
2017-05-12T09:04:37.860Z,2730
2017-05-12T09:05:37.952Z,2780
2017-05-12T09:06:38.008Z,2775
2017-05-12T09:07:38.000Z,2775
2017-05-12T09:08:38.032Z,2755
2017-05-12T09:09:38.061Z,2690
2017-05-12T09:10:37.948Z,2645
2017-05-12T09:11:38.232Z,2570
2017-05-12T09:12:37.973Z,2550
2017-05-12T09:13:38.422Z,2525
2017-05-12T09:14:38.106Z,2550
2017-05-12T09:15:38.157Z,2600
2017-05-12T09:16:38.232Z,2625
2017-05-12T09:17:38.571Z,2625
2017-05-12T09:18:38.634Z,2570
2017-05-12T09:19:39.009Z,2470
2017-05-12T09:20:38.762Z,2360
2017-05-12T09:21:38.818Z,2180
2017-05-12T09:22:38.606Z,2050
2017-05-12T09:23:38.944Z,1930
2017-05-12T09:24:39.637Z,1900
2017-05-12T09:25:39.142Z,1925
2017-05-12T09:26:38.854Z,2000
2017-05-12T09:27:39.788Z,2100
2017-05-12T09:28:39.247Z,2170
2017-05-12T09:29:38.991Z,2260
2017-05-12T09:30:39.111Z,2370
2017-05-12T09:31:39.757Z,2400
2017-05-12T09:32:39.788Z,2380
2017-05-12T09:33:39.542Z,2375
2017-05-12T09:34:39.605Z,2405
2017-05-12T09:35:39.972Z,2470
2017-05-12T09:36:39.417Z,2445
2017-05-12T09:37:39.474Z,2455
2017-05-12T09:38:40.147Z,2415
2017-05-12T09:39:39.592Z,2420
2017-05-12T09:40:39.655Z,2365
2017-05-12T09:41:40.028Z,2375
2017-05-12T09:42:40.089Z,2340
2017-05-12T09:43:40.149Z,2305
2017-05-12T09:44:39.950Z,2240
2017-05-12T09:45:40.276Z,2235
2017-05-12T09:46:40.634Z,2270
2017-05-12T09:47:40.687Z,2315
2017-05-12T09:48:40.443Z,2410
2017-05-12T09:49:40.205Z,2440
2017-05-12T09:50:40.561Z,2415
2017-05-12T09:51:40.327Z,2455
2017-05-12T09:52:40.719Z,2430
2017-05-12T09:53:40.752Z,2420
2017-05-12T09:54:40.499Z,2365
2017-05-12T09:55:41.169Z,2305
2017-05-12T09:56:41.234Z,2275
2017-05-12T09:57:40.984Z,2315
2017-05-12T09:58:41.124Z,2275
2017-05-12T09:59:41.106Z,2230
2017-05-12T10:00:40.866Z,2265
2017-05-12T10:01:40.917Z,2300
2017-05-12T10:02:40.979Z,2295
2017-05-12T10:03:41.357Z,2190
2017-05-12T10:04:41.419Z,2220
2017-05-12T10:05:41.469Z,2210
2017-05-12T10:06:41.844Z,2190
2017-05-12T10:07:41.587Z,2170
2017-05-12T10:08:41.966Z,2090
2017-05-12T10:09:42.020Z,2035
2017-05-12T10:10:41.497Z,2045
2017-05-12T10:11:41.526Z,2070
2017-05-12T10:12:41.894Z,2040
2017-05-12T10:13:41.639Z,2065
2017-05-12T10:14:42.029Z,2075
2017-05-12T10:15:41.758Z,2115
2017-05-12T10:16:42.448Z,2035
2017-05-12T10:17:42.206Z,2060
2017-05-12T10:18:41.943Z,2070
2017-05-12T10:19:42.312Z,2020
2017-05-12T10:20:42.389Z,2020
2017-05-12T10:21:42.434Z,1945
2017-05-12T10:22:42.806Z,1730
2017-05-12T10:23:42.548Z,1855
2017-05-12T10:24:42.308Z,1875
2017-05-12T10:25:42.667Z,1800
2017-05-12T10:26:42.743Z,1825
2017-05-12T10:27:42.800Z,1740
2017-05-12T10:28:42.538Z,1795
2017-05-12T10:29:43.221Z,1695
2017-05-12T10:30:43.281Z,795
2017-05-12T10:31:43.341Z,715
2017-05-12T10:32:43.089Z,1400
2017-05-12T10:33:43.151Z,830
2017-05-12T10:34:43.215Z,460
2017-05-12T10:35:43.072Z,550
2017-05-12T10:36:43.012Z,395
2017-05-12T10:37:43.695Z,365
2017-05-12T10:38:43.442Z,360
2017-05-12T10:39:43.198Z,350
2017-05-12T10:40:43.544Z,350
2017-05-12T10:41:43.440Z,345
2017-05-12T10:42:43.969Z,340
2017-05-12T10:43:43.406Z,335
2017-05-12T10:44:43.469Z,335
2017-05-12T10:45:43.828Z,340
2017-05-12T10:46:43.889Z,365
2017-05-12T10:47:43.664Z,390
2017-05-12T10:48:43.993Z,415
2017-05-12T10:49:44.040Z,495
2017-05-12T10:50:44.095Z,515
2017-05-12T10:51:43.838Z,510
2017-05-12T10:52:43.889Z,545
2017-05-12T10:53:44.570Z,655
2017-05-12T10:54:44.298Z,530
2017-05-12T10:55:44.358Z,480
2017-05-12T10:56:44.412Z,440
2017-05-12T10:57:45.070Z,405
2017-05-12T10:58:44.201Z,375
2017-05-12T10:59:44.874Z,385
2017-05-12T11:00:44.915Z,325
2017-05-12T11:01:44.362Z,310
2017-05-12T11:02:44.707Z,300
2017-05-12T11:03:45.076Z,290
2017-05-12T11:04:45.179Z,285
2017-05-12T11:05:44.917Z,275
2017-05-12T11:06:45.215Z,270
2017-05-12T11:07:45.583Z,265
2017-05-12T11:08:44.705Z,255
2017-05-12T11:09:44.763Z,255
2017-05-12T11:10:44.808Z,255
2017-05-12T11:11:44.856Z,260
2017-05-12T11:12:45.205Z,255
2017-05-12T11:13:45.574Z,255
2017-05-12T11:14:45.324Z,255
2017-05-12T11:15:45.365Z,255
2017-05-12T11:16:45.411Z,260
2017-05-12T11:17:45.147Z,255
2017-05-12T11:18:45.510Z,245
2017-05-12T11:19:45.253Z,240
2017-05-12T11:20:45.611Z,245
2017-05-12T11:21:46.006Z,250
2017-05-12T11:22:46.007Z,255
2017-05-12T11:23:45.441Z,265
2017-05-12T11:24:45.800Z,275
2017-05-12T11:25:45.540Z,285
2017-05-12T11:26:45.585Z,295
2017-05-12T11:27:46.258Z,315
2017-05-12T11:28:45.703Z,355
2017-05-12T11:29:45.739Z,380
2017-05-12T11:30:46.407Z,395
2017-05-12T11:31:46.452Z,415
2017-05-12T11:32:45.882Z,415
2017-05-12T11:33:46.238Z,425
2017-05-12T11:34:46.895Z,425
2017-05-12T11:35:46.649Z,420
2017-05-12T11:36:46.078Z,420
2017-05-12T11:37:46.432Z,410
2017-05-12T11:38:46.471Z,405
2017-05-12T11:39:46.213Z,395
2017-05-12T11:40:47.443Z,385
2017-05-12T11:41:46.624Z,375
2017-05-12T11:42:47.010Z,375
2017-05-12T11:43:46.727Z,375
2017-05-12T11:44:46.812Z,375
2017-05-12T11:45:46.506Z,365
2017-05-12T11:46:46.561Z,365
2017-05-12T11:47:46.600Z,370
2017-05-12T11:48:46.651Z,380
2017-05-12T11:49:46.707Z,385
2017-05-12T11:50:47.138Z,385
2017-05-12T11:51:47.112Z,385
2017-05-12T11:52:47.156Z,380
2017-05-12T11:53:47.201Z,390
2017-05-12T11:54:47.395Z,380
2017-05-12T11:55:47.075Z,365
2017-05-12T11:56:47.353Z,350
2017-05-12T11:57:47.392Z,340
2017-05-12T11:58:47.142Z,340
2017-05-12T11:59:47.496Z,340
2017-05-12T12:00:47.242Z,340
2017-05-12T12:01:47.591Z,330
2017-05-12T12:02:47.953Z,315
2017-05-12T12:03:47.683Z,300
2017-05-12T12:04:47.423Z,290
2017-05-12T12:05:48.395Z,280
2017-05-12T12:06:47.829Z,275
2017-05-12T12:07:47.868Z,255
2017-05-12T12:08:47.923Z,240
2017-05-12T12:09:47.978Z,225
2017-05-12T12:10:48.329Z,210
2017-05-12T12:11:47.750Z,200
2017-05-12T12:12:48.115Z,190
2017-05-12T12:13:47.877Z,185
2017-05-12T12:14:48.219Z,180
2017-05-12T12:15:47.945Z,175
2017-05-12T12:16:48.929Z,170
2017-05-12T12:17:48.655Z,165
2017-05-12T12:18:49.019Z,165
2017-05-12T12:19:48.451Z,170
2017-05-12T12:20:48.201Z,180
2017-05-12T12:21:48.240Z,180
2017-05-12T12:22:48.281Z,185
2017-05-12T12:23:48.326Z,195
2017-05-12T12:24:48.998Z,210
2017-05-12T12:25:48.784Z,225
2017-05-12T12:26:48.796Z,240
2017-05-12T12:27:48.818Z,250
2017-05-12T12:28:48.888Z,255
2017-05-12T12:29:48.606Z,260
2017-05-12T12:30:48.662Z,275
2017-05-12T12:31:49.325Z,285
2017-05-12T12:32:49.363Z,300
2017-05-12T12:33:49.104Z,310
2017-05-12T12:34:48.843Z,325
2017-05-12T12:35:48.888Z,335
2017-05-12T12:36:48.948Z,345
2017-05-12T12:37:49.288Z,350
2017-05-12T12:38:49.037Z,350
2017-05-12T12:39:49.080Z,340
2017-05-12T12:40:49.424Z,320
2017-05-12T12:41:49.489Z,305
2017-05-12T12:42:49.530Z,290
2017-05-12T12:43:49.569Z,280
2017-05-12T12:44:49.532Z,265
2017-05-12T12:45:49.669Z,260
2017-05-12T12:46:49.707Z,250
2017-05-12T12:47:49.459Z,245
2017-05-12T12:48:49.800Z,240
2017-05-12T12:49:49.852Z,240
2017-05-12T12:50:49.925Z,235
2017-05-12T12:51:49.949Z,240
2017-05-12T12:52:50.302Z,255
2017-05-12T12:53:49.724Z,265
2017-05-12T12:54:50.077Z,255
2017-05-12T12:55:50.126Z,250
2017-05-12T12:56:49.867Z,245
2017-05-12T12:57:49.905Z,245
2017-05-12T12:58:50.301Z,245
2017-05-12T12:59:50.312Z,240
2017-05-12T13:00:50.059Z,230
2017-05-12T13:01:50.093Z,225
2017-05-12T13:02:50.191Z,220
2017-05-12T13:03:50.243Z,225
2017-05-12T13:04:50.538Z,230
2017-05-12T13:05:50.583Z,245
2017-05-12T13:06:50.945Z,255
2017-05-12T13:07:50.368Z,265
2017-05-12T13:08:50.416Z,265
2017-05-12T13:09:51.069Z,250
2017-05-12T13:10:50.815Z,245
2017-05-12T13:11:51.183Z,240
2017-05-12T13:12:50.593Z,230
2017-05-12T13:13:50.945Z,225
2017-05-12T13:14:50.690Z,220
2017-05-12T13:15:51.351Z,215
2017-05-12T13:16:51.407Z,210
2017-05-12T13:17:50.837Z,205
2017-05-12T13:18:51.179Z,205
2017-05-12T13:19:50.915Z,205
2017-05-12T13:20:51.890Z,205
2017-05-12T13:21:51.314Z,210
2017-05-12T13:22:51.356Z,215
2017-05-12T13:23:51.101Z,215
2017-05-12T13:24:51.456Z,215
2017-05-12T13:25:51.493Z,215
2017-05-12T13:26:51.531Z,220
2017-05-12T13:27:51.277Z,225
2017-05-12T13:28:51.929Z,225
2017-05-12T13:29:51.358Z,230
2017-05-12T13:30:51.713Z,230
2017-05-12T13:31:51.761Z,235
2017-05-12T13:32:51.509Z,235
2017-05-12T13:33:51.541Z,235
2017-05-12T13:34:51.592Z,240
2017-05-12T13:35:51.932Z,240
2017-05-12T13:36:51.978Z,240
2017-05-12T13:37:52.038Z,240
2017-05-12T13:38:52.393Z,240
2017-05-12T13:39:52.421Z,245
2017-05-12T13:40:51.854Z,245
2017-05-12T13:41:52.210Z,240
2017-05-12T13:42:51.939Z,240
2017-05-12T13:43:51.984Z,240
2017-05-12T13:44:52.339Z,240
2017-05-12T13:45:52.069Z,240
2017-05-12T13:46:52.433Z,240
2017-05-12T13:47:52.160Z,240
2017-05-12T13:48:52.210Z,245
2017-05-12T13:49:52.555Z,245
2017-05-12T13:50:52.300Z,250
2017-05-12T13:51:52.643Z,245
2017-05-12T13:52:52.697Z,245
2017-05-12T13:53:53.092Z,245